createdAt,value
2018-02-17T00:00:59.749Z,-2.16
2018-02-17T00:01:59.733Z,-2.20
2018-02-17T00:02:59.733Z,-2.23
2018-02-17T00:03:59.809Z,-2.24
2018-02-17T00:04:59.738Z,-2.29
2018-02-17T00:05:59.716Z,-2.32
2018-02-17T00:06:59.710Z,-2.36
2018-02-17T00:07:59.690Z,-2.39
2018-02-17T00:08:59.711Z,-2.36
2018-02-17T00:10:02.560Z,-2.24
2018-02-17T00:10:59.661Z,-2.20
2018-02-17T00:11:59.723Z,-2.18
2018-02-17T00:12:59.671Z,-2.11
2018-02-17T00:13:59.627Z,-2.14
2018-02-17T00:14:59.646Z,-2.18
2018-02-17T00:15:59.647Z,-2.33
2018-02-17T00:16:59.604Z,-2.38
2018-02-17T00:17:59.605Z,-2.43
2018-02-17T00:18:59.596Z,-2.38
2018-02-17T00:19:59.588Z,-2.47
2018-02-17T00:20:59.582Z,-2.48
2018-02-17T00:21:59.566Z,-2.56
2018-02-17T00:22:59.551Z,-2.48
2018-02-17T00:23:59.618Z,-2.53
2018-02-17T00:24:59.559Z,-2.42
2018-02-17T00:25:59.577Z,-2.48
2018-02-17T00:26:59.547Z,-2.38
2018-02-17T00:27:59.557Z,-2.40
2018-02-17T00:28:59.526Z,-2.40
2018-02-17T00:29:59.530Z,-2.36
2018-02-17T00:30:59.534Z,-2.23
2018-02-17T00:31:59.499Z,-2.33
2018-02-17T00:32:59.480Z,-2.28
2018-02-17T00:33:59.523Z,-2.39
2018-02-17T00:34:59.515Z,-2.32
2018-02-17T00:35:59.551Z,-2.33
2018-02-17T00:36:59.520Z,-2.28
2018-02-17T00:37:59.488Z,-2.32
2018-02-17T00:38:59.548Z,-2.29
2018-02-17T00:40:01.050Z,-2.33
2018-02-17T00:40:59.527Z,-2.35
2018-02-17T00:41:59.464Z,-2.29
2018-02-17T00:42:59.470Z,-2.35
2018-02-17T00:43:59.414Z,-2.42
2018-02-17T00:44:59.399Z,-2.48
2018-02-17T00:45:59.390Z,-2.57
2018-02-17T00:47:01.081Z,-2.63
2018-02-17T00:47:59.439Z,-2.58
2018-02-17T00:48:59.484Z,-2.58
2018-02-17T00:49:59.326Z,-2.56
2018-02-17T00:50:59.333Z,-2.58
2018-02-17T00:51:59.379Z,-2.56
2018-02-17T00:52:59.343Z,-2.60
2018-02-17T00:53:59.314Z,-2.56
2018-02-17T00:54:59.332Z,-2.51
2018-02-17T00:55:59.274Z,-2.51
2018-02-17T00:56:59.303Z,-2.51
2018-02-17T00:57:59.256Z,-2.50
2018-02-17T00:59:01.099Z,-2.61
2018-02-17T00:59:59.261Z,-2.61
2018-02-17T01:00:59.275Z,-2.60
2018-02-17T01:01:59.285Z,-2.61
2018-02-17T01:03:01.116Z,-2.63
2018-02-17T01:03:59.264Z,-2.58
2018-02-17T01:04:59.195Z,-2.58
2018-02-17T01:06:01.056Z,-2.60
2018-02-17T01:06:59.210Z,-2.56
2018-02-17T01:07:59.181Z,-2.53
2018-02-17T01:08:59.160Z,-2.56
2018-02-17T01:10:01.051Z,-2.51
2018-02-17T01:10:59.207Z,-2.56
2018-02-17T01:11:59.088Z,-2.56
2018-02-17T01:12:59.156Z,-2.56
2018-02-17T01:13:59.111Z,-2.58
2018-02-17T01:14:59.085Z,-2.61
2018-02-17T01:15:59.062Z,-2.57
2018-02-17T01:16:59.055Z,-2.57
2018-02-17T01:17:59.065Z,-2.63
2018-02-17T01:18:59.025Z,-2.63
2018-02-17T01:19:59.016Z,-2.60
2018-02-17T01:20:59.016Z,-2.60
2018-02-17T01:21:59.001Z,-2.58
2018-02-17T01:22:59.015Z,-2.58
2018-02-17T01:23:59.021Z,-2.68
2018-02-17T01:24:59.028Z,-2.60
2018-02-17T01:25:58.987Z,-2.69
2018-02-17T01:26:58.949Z,-2.64
2018-02-17T01:27:59.028Z,-2.68
2018-02-17T01:28:58.923Z,-2.69
2018-02-17T01:29:58.962Z,-2.61
2018-02-17T01:30:58.910Z,-2.57
2018-02-17T01:31:58.900Z,-2.53
2018-02-17T01:32:58.968Z,-2.54
2018-02-17T01:33:58.872Z,-2.56
2018-02-17T01:34:58.880Z,-2.60
2018-02-17T01:35:58.891Z,-2.60
2018-02-17T01:36:58.848Z,-2.69
2018-02-17T01:37:58.841Z,-2.57
2018-02-17T01:38:58.842Z,-2.58
2018-02-17T01:39:58.827Z,-2.56
2018-02-17T01:40:58.817Z,-2.54
2018-02-17T01:41:58.822Z,-2.57
2018-02-17T01:42:58.809Z,-2.56
2018-02-17T01:43:58.815Z,-2.61
2018-02-17T01:44:58.784Z,-2.66
2018-02-17T01:45:58.772Z,-2.78
2018-02-17T01:46:58.757Z,-2.75
2018-02-17T01:47:58.766Z,-2.86
2018-02-17T01:48:58.733Z,-2.87
2018-02-17T01:49:58.798Z,-2.87
2018-02-17T01:50:58.796Z,-2.90
2018-02-17T01:51:58.820Z,-2.85
2018-02-17T01:52:58.707Z,-2.89
2018-02-17T01:53:58.704Z,-2.92
2018-02-17T01:54:58.702Z,-2.97
2018-02-17T01:55:58.655Z,-2.89
2018-02-17T01:56:58.654Z,-2.93
2018-02-17T01:57:58.781Z,-2.89
2018-02-17T01:58:58.664Z,-2.90
2018-02-17T01:59:58.637Z,-2.90
2018-02-17T02:00:58.664Z,-2.86
2018-02-17T02:01:58.595Z,-2.82
2018-02-17T02:02:58.583Z,-2.85
2018-02-17T02:03:58.577Z,-2.89
2018-02-17T02:04:58.563Z,-2.90
2018-02-17T02:05:58.580Z,-2.79
2018-02-17T02:06:58.545Z,-2.85
2018-02-17T02:07:58.533Z,-2.82
2018-02-17T02:08:58.520Z,-2.79
2018-02-17T02:09:58.520Z,-2.78
2018-02-17T02:10:58.501Z,-2.85
2018-02-17T02:11:58.649Z,-2.87
2018-02-17T02:12:58.480Z,-2.90
2018-02-17T02:13:58.468Z,-2.96
2018-02-17T02:14:58.463Z,-2.97
2018-02-17T02:15:58.459Z,-2.99
2018-02-17T02:16:58.443Z,-3.05
2018-02-17T02:17:58.431Z,-2.99
2018-02-17T02:18:58.421Z,-2.94
2018-02-17T02:19:58.407Z,-3.02
2018-02-17T02:20:58.399Z,-2.97
2018-02-17T02:21:58.400Z,-2.96
2018-02-17T02:22:58.380Z,-2.87
2018-02-17T02:23:58.370Z,-2.89
2018-02-17T02:24:58.359Z,-2.85
2018-02-17T02:25:58.350Z,-2.89
2018-02-17T02:26:58.339Z,-2.86
2018-02-17T02:27:58.331Z,-2.82
2018-02-17T02:28:58.317Z,-2.85
2018-02-17T02:29:58.334Z,-2.89
2018-02-17T02:30:58.324Z,-2.94
2018-02-17T02:31:58.287Z,-2.93
2018-02-17T02:32:58.278Z,-2.90
2018-02-17T02:33:58.296Z,-2.94
2018-02-17T02:34:58.261Z,-2.90
2018-02-17T02:35:58.245Z,-2.85
2018-02-17T02:36:58.235Z,-2.86
2018-02-17T02:37:58.226Z,-2.81
2018-02-17T02:38:58.219Z,-2.86
2018-02-17T02:39:58.204Z,-2.76
2018-02-17T02:40:58.204Z,-2.81
2018-02-17T02:41:58.248Z,-2.78
2018-02-17T02:42:58.227Z,-2.79
2018-02-17T02:43:58.190Z,-2.75
2018-02-17T02:44:58.239Z,-2.81
2018-02-17T02:46:00.095Z,-2.79
2018-02-17T02:46:58.158Z,-2.89
2018-02-17T02:47:58.139Z,-2.97
2018-02-17T02:48:58.225Z,-2.99
2018-02-17T02:49:58.102Z,-3.11
2018-02-17T02:50:58.092Z,-3.13
2018-02-17T02:51:58.098Z,-3.05
2018-02-17T02:52:58.081Z,-3.10
2018-02-17T02:53:58.078Z,-3.11
2018-02-17T02:54:58.052Z,-3.22
2018-02-17T02:55:58.038Z,-3.22
2018-02-17T02:56:58.030Z,-3.22
2018-02-17T02:57:58.019Z,-3.17
2018-02-17T02:58:58.012Z,-3.28
2018-02-17T02:59:58.000Z,-3.17
2018-02-17T03:00:57.992Z,-3.28
2018-02-17T03:01:57.993Z,-3.15
2018-02-17T03:02:57.969Z,-3.10
2018-02-17T03:03:57.959Z,-3.00
2018-02-17T03:04:57.946Z,-3.00
2018-02-17T03:05:57.936Z,-3.02
2018-02-17T03:06:57.923Z,-3.04
2018-02-17T03:07:57.916Z,-3.05
2018-02-17T03:08:57.904Z,-3.08
2018-02-17T03:09:57.893Z,-3.04
2018-02-17T03:10:57.888Z,-3.11
2018-02-17T03:11:57.874Z,-3.08
2018-02-17T03:12:57.875Z,-3.02
2018-02-17T03:13:57.854Z,-3.08
2018-02-17T03:14:57.844Z,-3.07
2018-02-17T03:15:57.831Z,-3.02
2018-02-17T03:16:57.818Z,-3.02
2018-02-17T03:17:57.926Z,-3.11
2018-02-17T03:18:57.896Z,-3.10
2018-02-17T03:19:57.876Z,-3.08
2018-02-17T03:20:57.854Z,-3.08
2018-02-17T03:21:57.813Z,-3.02
2018-02-17T03:22:57.788Z,-3.04
2018-02-17T03:23:57.783Z,-2.99
2018-02-17T03:24:59.630Z,-3.07
2018-02-17T03:25:57.803Z,-3.05
2018-02-17T03:26:57.770Z,-3.04
2018-02-17T03:27:57.776Z,-2.93
2018-02-17T03:28:57.721Z,-2.96
2018-02-17T03:29:57.689Z,-2.97
2018-02-17T03:30:57.674Z,-3.05
2018-02-17T03:31:57.665Z,-2.99
2018-02-17T03:32:57.652Z,-2.94
2018-02-17T03:33:57.682Z,-2.90
2018-02-17T03:34:57.699Z,-2.90
2018-02-17T03:35:57.624Z,-2.92
2018-02-17T03:36:57.622Z,-2.89
2018-02-17T03:37:57.617Z,-2.92
2018-02-17T03:38:57.645Z,-2.93
2018-02-17T03:39:57.619Z,-2.93
2018-02-17T03:40:57.609Z,-2.97
2018-02-17T03:41:57.559Z,-3.00
2018-02-17T03:42:57.554Z,-3.00
2018-02-17T03:43:57.573Z,-3.02
2018-02-17T03:44:57.561Z,-3.04
2018-02-17T03:45:57.530Z,-3.05
2018-02-17T03:46:57.535Z,-3.05
2018-02-17T03:47:57.499Z,-3.04
2018-02-17T03:48:57.544Z,-3.05
2018-02-17T03:49:57.480Z,-3.00
2018-02-17T03:50:57.488Z,-3.04
2018-02-17T03:51:57.539Z,-2.94
2018-02-17T03:52:57.548Z,-3.00
2018-02-17T03:53:57.494Z,-2.92
2018-02-17T03:54:57.490Z,-2.92
2018-02-17T03:55:57.459Z,-2.96
2018-02-17T03:56:57.496Z,-2.89
2018-02-17T03:57:57.438Z,-3.00
2018-02-17T03:58:57.521Z,-2.90
2018-02-17T03:59:57.423Z,-3.02
2018-02-17T04:00:57.401Z,-3.04
2018-02-17T04:01:57.370Z,-3.05
2018-02-17T04:02:57.379Z,-3.00
2018-02-17T04:03:57.349Z,-3.05
2018-02-17T04:04:57.385Z,-3.14
2018-02-17T04:05:57.332Z,-3.05
2018-02-17T04:06:57.366Z,-3.08
2018-02-17T04:07:57.286Z,-3.05
2018-02-17T04:08:57.307Z,-3.14
2018-02-17T04:09:57.312Z,-3.11
2018-02-17T04:10:57.265Z,-3.14
2018-02-17T04:11:57.338Z,-3.17
2018-02-17T04:12:57.283Z,-3.17
2018-02-17T04:13:59.093Z,-3.15
2018-02-17T04:14:57.354Z,-3.18
2018-02-17T04:15:57.340Z,-3.10
2018-02-17T04:16:57.298Z,-3.14
2018-02-17T04:17:57.438Z,-3.14
2018-02-17T04:18:57.204Z,-3.08
2018-02-17T04:19:57.156Z,-3.15
2018-02-17T04:20:57.139Z,-3.14
2018-02-17T04:21:57.141Z,-3.14
2018-02-17T04:22:57.126Z,-3.02
2018-02-17T04:23:57.105Z,-3.07
2018-02-17T04:24:57.106Z,-3.14
2018-02-17T04:25:57.090Z,-3.04
2018-02-17T04:26:57.076Z,-3.11
2018-02-17T04:27:57.072Z,-3.14
2018-02-17T04:28:57.055Z,-3.14
2018-02-17T04:29:57.041Z,-3.05
2018-02-17T04:30:57.035Z,-3.07
2018-02-17T04:31:57.034Z,-3.07
2018-02-17T04:32:57.015Z,-3.18
2018-02-17T04:33:57.028Z,-3.15
2018-02-17T04:34:56.996Z,-3.10
2018-02-17T04:35:57.041Z,-3.05
2018-02-17T04:36:56.965Z,-3.08
2018-02-17T04:37:56.971Z,-3.02
2018-02-17T04:38:57.001Z,-3.07
2018-02-17T04:39:56.992Z,-3.02
2018-02-17T04:40:56.927Z,-3.04
2018-02-17T04:41:56.938Z,-3.07
2018-02-17T04:42:56.953Z,-3.08
2018-02-17T04:43:56.940Z,-3.02
2018-02-17T04:44:56.951Z,-3.05
2018-02-17T04:45:56.968Z,-3.04
2018-02-17T04:46:56.906Z,-2.99
2018-02-17T04:47:56.876Z,-3.02
2018-02-17T04:48:56.904Z,-3.13
2018-02-17T04:49:56.834Z,-3.08
2018-02-17T04:50:56.838Z,-3.05
2018-02-17T04:51:56.825Z,-3.04
2018-02-17T04:52:56.852Z,-2.97
2018-02-17T04:53:56.874Z,-2.93
2018-02-17T04:54:56.784Z,-2.96
2018-02-17T04:55:56.794Z,-2.86
2018-02-17T04:56:56.841Z,-2.92
2018-02-17T04:57:56.828Z,-2.92
2018-02-17T04:58:56.731Z,-2.90
2018-02-17T04:59:56.720Z,-2.85
2018-02-17T05:00:56.735Z,-2.94
2018-02-17T05:01:56.721Z,-2.89
2018-02-17T05:02:56.733Z,-2.92
2018-02-17T05:03:56.732Z,-2.93
2018-02-17T05:04:56.690Z,-2.97
2018-02-17T05:05:57.011Z,-2.92
2018-02-17T05:06:58.636Z,-2.99
2018-02-17T05:07:56.793Z,-2.90
2018-02-17T05:08:56.798Z,-2.92
2018-02-17T05:09:58.651Z,-2.93
2018-02-17T05:10:56.778Z,-2.97
2018-02-17T05:11:59.817Z,-2.86
2018-02-17T05:12:56.708Z,-2.93
2018-02-17T05:13:56.702Z,-2.93
2018-02-17T05:14:58.576Z,-3.02
2018-02-17T05:15:56.800Z,-3.15
2018-02-17T05:16:56.649Z,-3.08
2018-02-17T05:17:56.920Z,-3.14
2018-02-17T05:18:56.643Z,-3.20
2018-02-17T05:19:56.612Z,-3.14
2018-02-17T05:20:56.548Z,-3.14
2018-02-17T05:21:56.501Z,-3.17
2018-02-17T05:22:56.497Z,-3.15
2018-02-17T05:23:56.494Z,-3.13
2018-02-17T05:24:56.453Z,-3.14
2018-02-17T05:25:56.481Z,-3.15
2018-02-17T05:26:56.448Z,-3.11
2018-02-17T05:27:56.449Z,-3.15
2018-02-17T05:28:56.453Z,-3.20
2018-02-17T05:29:56.423Z,-3.08
2018-02-17T05:30:56.391Z,-3.00
2018-02-17T05:31:56.380Z,-3.05
2018-02-17T05:32:56.383Z,-2.97
2018-02-17T05:33:56.362Z,-3.05
2018-02-17T05:34:56.410Z,-3.02
2018-02-17T05:35:56.366Z,-3.07
2018-02-17T05:36:56.345Z,-3.00
2018-02-17T05:37:56.326Z,-2.94
2018-02-17T05:38:56.309Z,-2.96
2018-02-17T05:39:56.294Z,-2.85
2018-02-17T05:40:56.287Z,-2.89
2018-02-17T05:41:56.316Z,-2.82
2018-02-17T05:42:56.292Z,-2.90
2018-02-17T05:43:56.260Z,-2.87
2018-02-17T05:44:56.243Z,-2.86
2018-02-17T05:45:56.236Z,-2.71
2018-02-17T05:46:56.216Z,-2.76
2018-02-17T05:47:56.209Z,-2.68
2018-02-17T05:48:56.213Z,-2.75
2018-02-17T05:49:56.216Z,-2.68
2018-02-17T05:50:56.180Z,-2.68
2018-02-17T05:51:56.166Z,-2.74
2018-02-17T05:52:56.179Z,-2.72
2018-02-17T05:53:56.150Z,-2.74
2018-02-17T05:54:56.179Z,-2.69
2018-02-17T05:55:56.209Z,-2.74
2018-02-17T05:56:56.196Z,-2.78
2018-02-17T05:57:56.261Z,-2.71
2018-02-17T05:58:56.162Z,-2.74
2018-02-17T05:59:57.283Z,-2.76
2018-02-17T06:00:58.092Z,-2.66
2018-02-17T06:01:56.159Z,-2.69
2018-02-17T06:02:56.237Z,-2.75
2018-02-17T06:03:56.111Z,-2.72
2018-02-17T06:04:56.222Z,-2.79
2018-02-17T06:05:57.597Z,-2.76
2018-02-17T06:06:56.072Z,-2.71
2018-02-17T06:07:57.585Z,-2.68
2018-02-17T06:08:56.067Z,-2.66
2018-02-17T06:09:57.592Z,-2.61
2018-02-17T06:10:55.990Z,-2.54
2018-02-17T06:11:55.954Z,-2.54
2018-02-17T06:12:55.943Z,-2.58
2018-02-17T06:13:55.989Z,-2.58
2018-02-17T06:14:56.095Z,-2.60
2018-02-17T06:15:55.967Z,-2.64
2018-02-17T06:16:57.663Z,-2.64
2018-02-17T06:17:55.928Z,-2.64
2018-02-17T06:18:55.903Z,-2.72
2018-02-17T06:19:55.909Z,-2.68
2018-02-17T06:20:55.923Z,-2.72
2018-02-17T06:21:55.882Z,-2.72
2018-02-17T06:22:55.901Z,-2.79
2018-02-17T06:23:55.909Z,-2.81
2018-02-17T06:24:55.831Z,-2.85
2018-02-17T06:25:55.841Z,-2.82
2018-02-17T06:26:55.806Z,-2.79
2018-02-17T06:27:55.801Z,-2.78
2018-02-17T06:28:55.811Z,-2.82
2018-02-17T06:29:55.778Z,-2.90
2018-02-17T06:30:55.826Z,-2.78
2018-02-17T06:31:55.780Z,-2.90
2018-02-17T06:32:57.564Z,-2.78
2018-02-17T06:33:55.762Z,-2.79
2018-02-17T06:34:55.810Z,-2.81
2018-02-17T06:35:55.816Z,-2.82
2018-02-17T06:36:55.714Z,-2.75
2018-02-17T06:37:55.696Z,-2.69
2018-02-17T06:38:55.681Z,-2.72
2018-02-17T06:39:55.721Z,-2.69
2018-02-17T06:40:55.686Z,-2.74
2018-02-17T06:41:55.648Z,-2.76
2018-02-17T06:42:55.637Z,-2.72
2018-02-17T06:43:55.628Z,-2.69
2018-02-17T06:44:55.614Z,-2.75
2018-02-17T06:45:55.606Z,-2.69
2018-02-17T06:46:55.627Z,-2.63
2018-02-17T06:47:55.629Z,-2.58
2018-02-17T06:48:55.628Z,-2.58
2018-02-17T06:49:55.568Z,-2.58
2018-02-17T06:50:55.570Z,-2.58
2018-02-17T06:51:55.625Z,-2.54
2018-02-17T06:52:55.696Z,-2.50
2018-02-17T06:53:55.559Z,-2.51
2018-02-17T06:54:55.516Z,-2.48
2018-02-17T06:55:55.588Z,-2.39
2018-02-17T06:56:55.553Z,-2.43
2018-02-17T06:57:58.104Z,-2.45
2018-02-17T06:58:55.568Z,-2.36
2018-02-17T06:59:55.533Z,-2.42
2018-02-17T07:00:55.510Z,-2.39
2018-02-17T07:01:55.443Z,-2.36
2018-02-17T07:02:55.430Z,-2.33
2018-02-17T07:03:55.426Z,-2.36
2018-02-17T07:04:55.416Z,-2.29
2018-02-17T07:05:55.412Z,-2.36
2018-02-17T07:06:55.393Z,-2.33
2018-02-17T07:07:55.388Z,-2.29
2018-02-17T07:08:55.406Z,-2.26
2018-02-17T07:09:55.359Z,-2.29
2018-02-17T07:10:55.355Z,-2.23
2018-02-17T07:11:55.343Z,-2.23
2018-02-17T07:12:55.354Z,-2.16
2018-02-17T07:13:55.319Z,-2.21
2018-02-17T07:14:55.347Z,-2.21
2018-02-17T07:15:55.319Z,-2.16
2018-02-17T07:16:55.293Z,-2.11
2018-02-17T07:17:55.284Z,-2.17
2018-02-17T07:18:55.293Z,-2.08
2018-02-17T07:19:55.278Z,-2.03
2018-02-17T07:20:55.262Z,-1.96
2018-02-17T07:21:55.298Z,-2.02
2018-02-17T07:22:55.397Z,-2.02
2018-02-17T07:23:55.234Z,-2.10
2018-02-17T07:24:55.209Z,-1.98
2018-02-17T07:25:55.246Z,-2.02
2018-02-17T07:26:55.207Z,-2.16
2018-02-17T07:27:55.186Z,-2.05
2018-02-17T07:28:55.197Z,-1.99
2018-02-17T07:29:55.191Z,-1.98
2018-02-17T07:30:57.520Z,-2.00
2018-02-17T07:35:57.021Z,-1.84
2018-02-17T07:36:57.240Z,-1.82
2018-02-17T07:38:54.069Z,-1.77
2018-02-17T07:45:34.458Z,-1.66
2018-02-17T07:46:43.414Z,-1.63
2018-02-17T07:48:29.759Z,-1.63
2018-02-17T07:49:29.697Z,-1.60
2018-02-17T07:51:25.633Z,-1.60
2018-02-17T07:52:27.103Z,-1.59
2018-02-17T07:53:25.707Z,-1.56
2018-02-17T07:54:25.564Z,-1.49
2018-02-17T08:00:31.301Z,-1.20
2018-02-17T08:01:31.251Z,-1.24
2018-02-17T08:03:27.140Z,-1.15
2018-02-17T08:04:26.613Z,-1.15
2018-02-17T08:06:20.976Z,-1.06
2018-02-17T08:07:21.209Z,-1.03
2018-02-17T08:08:21.041Z,-1.05
2018-02-17T08:09:20.969Z,-1.02
2018-02-17T08:10:21.080Z,-0.95
2018-02-17T08:11:20.860Z,-1.00
2018-02-17T08:12:20.859Z,-0.86
2018-02-17T08:13:20.845Z,-0.84
2018-02-17T08:14:20.833Z,-0.94
2018-02-17T08:15:20.829Z,-0.87
2018-02-17T08:16:20.880Z,-0.80
2018-02-17T08:17:20.811Z,-0.69
2018-02-17T08:18:20.819Z,-0.75
2018-02-17T08:19:20.827Z,-0.63
2018-02-17T08:20:23.672Z,-0.63
2018-02-17T08:21:20.782Z,-0.57
2018-02-17T08:22:20.768Z,-0.48
2018-02-17T08:23:20.762Z,-0.44
2018-02-17T08:24:20.788Z,-0.50
2018-02-17T08:25:20.744Z,-0.45
2018-02-17T08:26:20.734Z,-0.44
2018-02-17T08:27:20.732Z,-0.39
2018-02-17T08:28:20.758Z,-0.26
2018-02-17T08:29:20.711Z,-0.23
2018-02-17T08:30:20.700Z,-0.33
2018-02-17T08:31:20.789Z,-0.33
2018-02-17T08:32:20.690Z,-0.24
2018-02-17T08:33:20.679Z,-0.23
2018-02-17T08:34:20.769Z,-0.26
2018-02-17T08:35:20.693Z,-0.23
2018-02-17T08:36:20.661Z,-0.22
2018-02-17T08:37:20.644Z,-0.15
2018-02-17T08:38:20.645Z,-0.12
2018-02-17T08:39:20.661Z,-0.11
2018-02-17T08:40:20.623Z,-0.16
2018-02-17T08:41:20.639Z,-0.09
2018-02-17T08:42:20.603Z,-0.12
2018-02-17T08:43:20.596Z,-0.09
2018-02-17T08:44:20.649Z,-0.12
2018-02-17T08:45:20.621Z,-0.01
2018-02-17T08:46:20.629Z,0.00
2018-02-17T08:47:20.590Z,0.02
2018-02-17T08:48:20.552Z,0.00
2018-02-17T08:49:20.550Z,0.06
2018-02-17T08:50:20.592Z,0.06
2018-02-17T08:51:20.537Z,0.20
2018-02-17T08:52:20.575Z,0.21
2018-02-17T08:53:20.538Z,0.27
2018-02-17T08:54:20.507Z,0.27
2018-02-17T08:55:20.500Z,0.24
2018-02-17T08:56:20.546Z,0.30
2018-02-17T08:57:20.484Z,0.38
2018-02-17T08:58:20.476Z,0.41
2018-02-17T08:59:20.466Z,0.41
2018-02-17T09:00:20.492Z,0.48
2018-02-17T09:01:20.453Z,0.41
2018-02-17T09:02:20.622Z,0.48
2018-02-17T09:03:20.579Z,0.62
2018-02-17T09:04:20.437Z,0.58
2018-02-17T09:05:20.425Z,0.68
2018-02-17T09:06:20.416Z,0.62
2018-02-17T09:07:20.424Z,0.70
2018-02-17T09:08:20.401Z,0.75
2018-02-17T09:09:20.400Z,0.75
2018-02-17T09:10:20.386Z,0.82
2018-02-17T09:11:20.377Z,0.82
2018-02-17T09:12:20.380Z,0.89
2018-02-17T09:13:20.363Z,0.94
2018-02-17T09:14:20.354Z,0.92
2018-02-17T09:15:20.348Z,0.94
2018-02-17T09:16:20.362Z,0.98
2018-02-17T09:17:20.331Z,0.98
2018-02-17T09:18:20.324Z,0.98
2018-02-17T09:19:20.323Z,1.10
2018-02-17T09:20:20.350Z,1.07
2018-02-17T09:21:20.305Z,1.14
2018-02-17T09:22:20.298Z,1.14
2018-02-17T09:23:20.291Z,0.98
2018-02-17T09:24:20.284Z,1.15
2018-02-17T09:25:20.278Z,1.22
2018-02-17T09:26:20.272Z,1.22
2018-02-17T09:27:20.300Z,1.24
2018-02-17T09:28:20.260Z,1.34
2018-02-17T09:29:20.249Z,1.32
2018-02-17T09:30:20.245Z,1.34
2018-02-17T09:31:20.246Z,1.39
2018-02-17T09:32:20.229Z,1.42
2018-02-17T09:33:20.222Z,1.44
2018-02-17T09:34:20.216Z,1.51
2018-02-17T09:35:20.210Z,1.54
2018-02-17T09:36:20.203Z,1.54
2018-02-17T09:37:20.194Z,1.60
2018-02-17T09:38:20.307Z,1.64
2018-02-17T09:39:20.183Z,1.64
2018-02-17T09:40:20.186Z,1.68
2018-02-17T09:41:20.187Z,1.61
2018-02-17T09:42:20.161Z,1.68
2018-02-17T09:43:20.156Z,1.71
2018-02-17T09:44:20.149Z,1.75
2018-02-17T09:45:20.143Z,1.82
2018-02-17T09:46:20.135Z,1.90
2018-02-17T09:47:20.131Z,2.08
2018-02-17T09:48:20.125Z,1.90
2018-02-17T09:49:20.150Z,1.87
2018-02-17T09:50:20.144Z,1.79
2018-02-17T09:51:20.119Z,1.79
2018-02-17T09:52:20.122Z,1.78
2018-02-17T09:53:20.210Z,1.76
2018-02-17T09:54:20.343Z,1.78
2018-02-17T09:55:20.090Z,1.65
2018-02-17T09:56:20.075Z,1.71
2018-02-17T09:57:20.067Z,1.65
2018-02-17T09:58:20.065Z,1.72
2018-02-17T09:59:20.057Z,1.64
2018-02-17T10:00:20.051Z,1.64
2018-02-17T10:01:20.081Z,1.68
2018-02-17T10:02:20.118Z,1.64
2018-02-17T10:03:20.085Z,1.65
2018-02-17T10:06:01.826Z,1.62
2018-02-17T10:07:01.742Z,1.69
2018-02-17T10:08:56.590Z,1.82
2018-02-17T10:11:50.513Z,1.91
2018-02-17T10:12:50.491Z,1.99
2018-02-17T10:13:50.994Z,2.04
2018-02-17T10:14:50.441Z,2.02
2018-02-17T10:15:50.630Z,2.06
2018-02-17T10:16:50.480Z,2.17
2018-02-17T10:17:50.401Z,1.99
2018-02-17T10:18:50.394Z,2.10
2018-02-17T10:19:50.385Z,2.17
2018-02-17T10:20:50.377Z,2.06
2018-02-17T10:21:50.421Z,2.02
2018-02-17T10:22:50.367Z,2.06
2018-02-17T10:23:50.388Z,2.02
2018-02-17T10:24:50.355Z,2.02
2018-02-17T10:25:50.346Z,2.01
2018-02-17T10:26:50.344Z,2.08
2018-02-17T10:27:50.356Z,2.06
2018-02-17T10:28:50.336Z,2.08
2018-02-17T10:29:50.332Z,2.10
2018-02-17T10:30:50.325Z,2.12
2018-02-17T10:31:50.334Z,2.08
2018-02-17T10:32:50.309Z,2.20
2018-02-17T10:33:50.297Z,2.15
2018-02-17T10:34:50.327Z,2.22
2018-02-17T10:35:53.009Z,2.31
2018-02-17T10:36:50.330Z,2.41
2018-02-17T10:38:46.186Z,2.48
2018-02-17T10:39:46.169Z,2.59
2018-02-17T10:41:40.599Z,2.53
2018-02-17T10:43:31.733Z,2.58
2018-02-17T10:44:44.557Z,2.70
2018-02-17T10:45:46.754Z,2.73
2018-02-17T10:47:39.242Z,2.76
2018-02-17T10:48:39.195Z,2.76
2018-02-17T10:50:34.655Z,2.88
2018-02-17T10:51:34.386Z,2.73
2018-02-17T10:53:31.317Z,2.66
2018-02-17T10:54:31.414Z,2.74
2018-02-17T10:55:31.260Z,2.53
2018-02-17T10:56:31.294Z,2.49
2018-02-17T10:57:31.114Z,2.40
2018-02-17T10:58:31.150Z,2.38
2018-02-17T10:59:31.109Z,2.33
2018-02-17T11:00:31.133Z,2.33
2018-02-17T11:01:33.644Z,2.31
2018-02-17T11:02:31.341Z,2.31
2018-02-17T11:03:33.656Z,2.41
2018-02-17T11:04:31.074Z,2.44
2018-02-17T11:05:31.069Z,2.33
2018-02-17T11:06:31.225Z,2.35
2018-02-17T11:07:31.075Z,2.33
2018-02-17T11:08:31.055Z,2.35
2018-02-17T11:09:31.046Z,2.35
2018-02-17T11:10:31.050Z,2.31
2018-02-17T11:11:31.045Z,2.30
2018-02-17T11:12:31.031Z,2.41
2018-02-17T11:13:31.027Z,2.45
2018-02-17T11:16:26.507Z,2.46
2018-02-17T11:23:03.020Z,2.53
2018-02-17T11:25:11.260Z,2.59
2018-02-17T11:28:19.404Z,2.56
2018-02-17T11:31:14.742Z,2.67
2018-02-17T11:32:17.414Z,2.84
2018-02-17T11:38:32.436Z,2.74
2018-02-17T11:38:52.702Z,2.74
2018-02-17T11:39:55.608Z,2.81
2018-02-17T11:46:29.396Z,2.71
2018-02-17T11:49:57.917Z,2.70
2018-02-17T11:54:23.013Z,2.87
2018-02-17T11:55:18.553Z,2.81
2018-02-17T11:56:18.431Z,2.81
2018-02-17T11:57:18.351Z,2.73
2018-02-17T11:58:18.910Z,2.59
2018-02-17T11:59:18.275Z,2.58
2018-02-17T12:00:18.275Z,2.64
2018-02-17T12:01:18.298Z,2.67
2018-02-17T12:02:18.375Z,2.66
2018-02-17T12:03:21.315Z,2.73
2018-02-17T12:04:18.641Z,2.73
2018-02-17T12:05:18.603Z,2.77
2018-02-17T12:06:43.110Z,2.79
2018-02-17T12:08:18.383Z,2.85
2018-02-17T12:09:15.322Z,2.74
2018-02-17T12:10:26.810Z,2.77
2018-02-17T12:11:16.176Z,2.84
2018-02-17T12:12:15.081Z,2.73
2018-02-17T12:13:15.063Z,2.73
2018-02-17T12:14:15.060Z,2.79
2018-02-17T12:15:15.056Z,2.73
2018-02-17T12:16:15.194Z,2.77
2018-02-17T12:17:16.886Z,2.82
2018-02-17T12:18:15.033Z,2.92
2018-02-17T12:19:15.050Z,2.76
2018-02-17T12:20:15.021Z,2.85
2018-02-17T12:21:15.015Z,2.85
2018-02-17T12:22:15.009Z,2.77
2018-02-17T12:23:15.004Z,2.74
2018-02-17T12:24:15.003Z,2.88
2018-02-17T12:25:15.011Z,2.88
2018-02-17T12:26:14.988Z,2.87
2018-02-17T12:27:14.985Z,2.87
2018-02-17T12:28:15.014Z,2.88
2018-02-17T12:29:14.971Z,2.89
2018-02-17T12:30:15.015Z,2.85
2018-02-17T12:31:14.963Z,2.94
2018-02-17T12:32:14.984Z,3.06
2018-02-17T12:33:14.946Z,2.95
2018-02-17T12:34:14.953Z,2.92
2018-02-17T12:35:14.978Z,3.00
2018-02-17T12:36:14.933Z,2.94
2018-02-17T12:37:14.927Z,2.94
2018-02-17T12:38:14.916Z,3.05
2018-02-17T12:39:14.911Z,3.06
2018-02-17T12:40:15.058Z,3.03
2018-02-17T12:41:14.905Z,2.92
2018-02-17T12:42:14.896Z,2.87
2018-02-17T12:43:14.896Z,2.92
2018-02-17T12:44:14.895Z,2.81
2018-02-17T12:45:14.877Z,2.79
2018-02-17T12:46:14.932Z,2.81
2018-02-17T12:47:14.870Z,2.87
2018-02-17T12:48:14.899Z,2.84
2018-02-17T12:49:14.855Z,2.91
2018-02-17T12:50:14.857Z,2.89
2018-02-17T12:51:14.844Z,2.94
2018-02-17T12:52:14.838Z,2.89
2018-02-17T12:53:14.833Z,2.89
2018-02-17T12:54:14.830Z,2.81
2018-02-17T12:55:14.826Z,2.88
2018-02-17T12:56:14.815Z,2.85
2018-02-17T12:57:14.810Z,2.88
2018-02-17T12:58:14.804Z,2.91
2018-02-17T12:59:14.976Z,2.84
2018-02-17T13:00:14.791Z,2.88
2018-02-17T13:01:14.790Z,2.94
2018-02-17T13:02:14.782Z,2.94
2018-02-17T13:03:14.833Z,2.91
2018-02-17T13:04:14.767Z,2.94
2018-02-17T13:05:14.764Z,2.87
2018-02-17T13:06:14.757Z,2.85
2018-02-17T13:07:14.803Z,2.92
2018-02-17T13:08:14.750Z,2.95
2018-02-17T13:09:14.738Z,2.98
2018-02-17T13:10:14.736Z,3.05
2018-02-17T13:11:14.731Z,3.10
2018-02-17T13:12:14.727Z,3.03
2018-02-17T13:13:14.718Z,2.94
2018-02-17T13:14:14.713Z,2.84
2018-02-17T13:15:14.708Z,2.91
2018-02-17T13:16:14.699Z,2.82
2018-02-17T13:17:14.692Z,2.97
2018-02-17T13:18:14.688Z,2.92
2018-02-17T13:19:14.682Z,2.95
2018-02-17T13:20:14.675Z,2.92
2018-02-17T13:21:14.669Z,2.97
2018-02-17T13:22:14.665Z,3.05
2018-02-17T13:23:14.661Z,2.98
2018-02-17T13:24:14.649Z,2.88
2018-02-17T13:25:14.649Z,2.84
2018-02-17T13:26:14.642Z,2.82
2018-02-17T13:27:14.635Z,2.88
2018-02-17T13:28:16.014Z,2.97
2018-02-17T13:31:00.393Z,3.05
2018-02-17T13:31:47.460Z,3.12
2018-02-17T13:32:47.880Z,3.06
2018-02-17T13:33:47.308Z,3.09
2018-02-17T13:34:47.141Z,3.05
2018-02-17T13:35:47.197Z,3.05
2018-02-17T13:36:47.190Z,3.10
2018-02-17T13:37:47.100Z,3.02
2018-02-17T13:40:31.476Z,3.05
2018-02-17T13:41:30.912Z,3.06
2018-02-17T13:43:24.948Z,3.03
2018-02-17T13:44:25.037Z,2.91
2018-02-17T13:46:19.246Z,2.95
2018-02-17T13:47:19.627Z,2.85
2018-02-17T13:49:13.581Z,2.79
2018-02-17T13:50:13.589Z,2.71
2018-02-17T13:52:08.078Z,2.74
2018-02-17T13:53:08.215Z,2.73
2018-02-17T13:55:02.580Z,2.63
2018-02-17T13:56:02.485Z,2.71
2018-02-17T13:57:02.441Z,2.71
2018-02-17T13:58:02.433Z,2.73
2018-02-17T13:59:02.422Z,2.73
2018-02-17T14:00:02.477Z,2.79
2018-02-17T14:01:02.409Z,2.74
2018-02-17T14:02:02.403Z,2.82
2018-02-17T14:03:02.399Z,2.87
2018-02-17T14:04:02.410Z,2.84
2018-02-17T14:05:02.393Z,2.91
2018-02-17T14:06:02.562Z,2.89
2018-02-17T14:07:02.378Z,2.85
2018-02-17T14:08:02.372Z,2.87
2018-02-17T14:09:02.361Z,2.82